West Seneca, NY (14224)

10:50 AM EDT on October 01, 2014 (GMT -0400)
West Seneca I-90/400 | Change Station
CLOSE
Current Station
Personal Weather Station
Location: West Seneca, NY
Elevation: 600 ft
Nearby Weather Stations

Elev 600 ft 42.84 °N, 78.78 °W | Updated 1 minute ago

Overcast
Overcast
63.1 °F
Feels Like 63.1 °F
N
0.0
Wind Variable Wind from East
Gusts 6.0 mph

Today
High -- | Low -- °F
--% Chance of Precip.
Yesterday
High -- | Low -- °F
Precip. -- in
7:12 AM 6:56 PM
Waxing Crescent, 48% visible
Pressure 29.89 in
Visibility 10.0 miles
Clouds Few 2900 ft
Mostly Cloudy 13000 ft
Mostly Cloudy 21000 ft
Mostly Cloudy 26000 ft
Dew Point 60 °F
Humidity 89%
Rainfall 0.00 in
Snow Depth Not available.
UV 2 out of 12
Pollen 2.60 out of 12
PM2.5 Moderate
Flu Activity Not available.
METAR KBUF 301454Z 20003KT 10SM FEW029 BKN130 BKN210 BKN260 19/13 A2989 RMK AO2 SLP122 T01940128 50001

More Conditions Fewer Conditions

Pressure 29.89 in
Visibility 10.0 miles
Clouds Few 2900 ft
Mostly Cloudy 13000 ft
Mostly Cloudy 21000 ft
Mostly Cloudy 26000 ft
Dew Point 60 °F
Humidity 89%
Rainfall 0.00 in
Snow Depth Not available.
UV 2 out of 12
Pollen 2.60 out of 12
PM2.5 Moderate
Flu Activity Not available.
METAR KBUF 301454Z 20003KT 10SM FEW029 BKN130 BKN210 BKN260 19/13 A2989 RMK AO2 SLP122 T01940128 50001

More Conditions Fewer Conditions

10-Day Weather Forecast

Almanac

Astronomy

Oct. 01, 2014 Rise Set
Actual Time 7:12 AM EDT 6:56 PM EDT
Civil Twilight 6:44 AM EDT 7:24 PM EDT
Nautical Twilight 6:11 AM EDT 7:57 PM EDT
Astronomical Twilight 5:38 AM EDT 8:30 PM EDT
Moon 2:17 PM EDT No Moon Set
Length of Visible Light 12h 40m
Length of Day
11h 44m
Tomorrow will be 2m 53s shorter.
Waxing Crescent, 48% of the Moon is Illuminated
Today
Waxing Crescent
Oct 1
First Quarter
Oct 8
Full
Oct 15
Last Quarter
Oct 23
New

Today's Extremes

State Highs State Lows

Community

WunderPhotos

Upload Photos

1,757,960 photos uploaded!

Nearby

Air Quality

  Air Quality AQ Index Pollutant
Yesterday Moderate
PM2.5
Yesterday Good
OZONE
Current Moderate
PM2.5
Wednesday Good
PM2.5

Snow Depth

Station Depth Elevation
No new snow has been reported.

Earthquake Activity

City Distance Mag. Time & Date
No recent earthquake activity has been reported nearby.
Minimum magnitude displayed is 2.5.

Coastal Water Temperatures

Place Temperature
Buffalo, NY 66.9 °F

Nearby Weather Stations